Time;durP1;ratioP1;P1;durP2;ratioP2;P2;SDS_P1;SDS_P2;PMS_P1;PMS_P2;Temp;Humidity;BMP_temperature;BMP_pressure;BME280_temperature;BME280_humidity;BME280_pressure;Samples;Min_cycle;Max_cycle;Signal;HPM_P1;HPM_P2
2022/06/04 00:00:26;;;;;;;;;23.00;23.00;;;;;21.10;63.59;100693.00;5136611;27;45475;-61
2022/06/04 00:02:52;;;;;;;;;28.00;25.67;;;;;21.09;63.72;100692.16;5136220;27;46045;-63
2022/06/04 00:05:21;;;;;;;;;29.67;29.33;;;;;21.10;63.57;100701.84;5135300;27;45531;-62
2022/06/04 00:07:47;;;;;;;;;27.67;26.67;;;;;21.08;63.42;100702.94;5136990;27;45996;-63
2022/06/04 00:15:48;;;;;;;;;29.00;29.00;;;;;21.04;64.04;100688.13;5136274;27;45463;-63
2022/06/04 00:18:14;;;;;;;;;29.00;27.67;;;;;21.05;63.53;100696.00;5136150;27;45468;-63
2022/06/04 00:20:40;;;;;;;;;25.67;25.67;;;;;21.04;63.43;100691.66;5136673;27;45634;-62
2022/06/04 00:23:07;;;;;;;;;26.00;26.00;;;;;21.06;63.27;100683.50;5136185;27;46066;-62
2022/06/04 00:25:35;;;;;;;;;25.33;25.33;;;;;21.07;63.45;100687.88;5135929;27;45574;-63
2022/06/04 00:28:01;;;;;;;;;25.67;25.67;;;;;;;;5136569;27;45456;-62
2022/06/04 00:30:27;;;;;;;;;23.33;23.33;;;;;21.05;63.35;100697.84;5136478;27;45494;-62
2022/06/04 00:32:53;;;;;;;;;23.00;23.00;;;;;21.04;63.06;100691.66;5135396;27;46448;-63
2022/06/04 00:35:19;;;;;;;;;29.67;28.00;;;;;21.02;63.38;100698.94;5136276;27;45499;-63
2022/06/04 00:37:44;;;;;;;;;28.00;26.00;;;;;20.98;63.37;100691.25;5136750;27;45535;-63
2022/06/04 00:40:19;;;;;;;;;26.33;26.33;;;;;20.95;63.62;100693.22;5136858;27;45440;-63
2022/06/04 00:42:44;;;;;;;;;27.67;26.00;;;;;20.94;63.71;100687.97;5135961;27;46208;-63
2022/06/04 00:45:21;;;;;;;;;22.33;22.33;;;;;20.90;63.63;100687.38;5135771;27;45451;-63
2022/06/04 00:47:50;;;;;;;;;27.00;26.00;;;;;20.89;63.47;100685.66;5136422;27;45518;-63
2022/06/04 00:50:19;;;;;;;;;24.33;24.33;;;;;20.88;63.81;100678.63;5136031;27;45544;-62
2022/06/04 00:52:47;;;;;;;;;28.67;28.67;;;;;20.84;63.72;100674.47;5135860;27;45469;-62
2022/06/04 00:55:13;;;;;;;;;26.67;25.67;;;;;20.82;63.81;100667.53;5135599;27;45447;-63
2022/06/04 00:57:38;;;;;;;;;27.33;26.67;;;;;20.84;63.80;100665.59;5136275;27;45398;-62
2022/06/04 01:00:10;;;;;;;;;23.33;23.33;;;;;20.85;63.64;100659.28;5134496;27;45492;-62
2022/06/04 01:03:03;;;;;;;;;26.00;26.00;;;;;20.85;63.26;100662.81;5135408;27;46108;-61
2022/06/04 01:05:53;;;;;;;;;29.00;27.33;;;;;20.86;63.51;100664.50;5135628;27;45508;-63
2022/06/04 01:08:43;;;;;;;;;24.00;21.67;;;;;20.85;63.58;100657.47;5136293;27;45408;-61
2022/06/04 01:11:19;;;;;;;;;23.33;23.00;;;;;20.82;63.41;100656.84;5135855;27;45476;-61
2022/06/04 01:13:54;;;;;;;;;28.33;27.67;;;;;20.82;63.36;100660.38;5135363;27;46673;-62
2022/06/04 01:16:52;;;;;;;;;25.33;25.33;;;;;20.83;63.71;100661.22;5135408;27;45593;-62
2022/06/04 01:19:23;;;;;;;;;27.33;27.33;;;;;20.84;63.42;100660.25;5134894;27;45511;-62
2022/06/04 01:22:10;;;;;;;;;25.67;23.67;;;;;20.82;63.02;100656.84;5135343;27;45488;-63
2022/06/04 01:24:41;;;;;;;;;26.33;25.00;;;;;20.81;63.39;100645.28;5134807;27;45495;-63
2022/06/04 01:27:32;;;;;;;;;26.67;25.00;;;;;20.82;63.28;100639.00;5135185;27;46008;-61
2022/06/04 01:29:58;;;;;;;;;22.67;22.67;;;;;20.83;63.28;100629.16;5135007;27;45435;-63
2022/06/04 01:32:48;;;;;;;;;26.33;25.00;;;;;20.83;63.59;100629.16;5135148;27;45519;-61
2022/06/04 01:35:23;;;;;;;;;23.33;23.33;;;;;20.82;63.16;100625.63;5135325;27;45468;-63
2022/06/04 01:38:04;;;;;;;;;25.00;25.00;;;;;20.81;63.48;100633.75;5135438;27;45604;-63
2022/06/04 01:43:23;;;;;;;;;26.33;24.67;;;;;20.81;63.60;100626.59;5135489;27;45582;-62
2022/06/04 01:45:52;;;;;;;;;26.67;25.67;;;;;20.80;63.30;100627.56;5134378;27;46393;-63
2022/06/04 01:48:19;;;;;;;;;29.00;27.00;;;;;20.79;63.58;100623.16;5134878;27;45498;-63
2022/06/04 01:50:53;;;;;;;;;28.00;28.00;;;;;20.79;63.04;100627.66;5135241;27;45429;-63
2022/06/04 01:53:22;;;;;;;;;29.33;27.67;;;;;20.78;63.46;100620.63;5135069;27;45507;-62
2022/06/04 01:55:53;;;;;;;;;28.33;27.67;;;;;20.76;63.51;100625.25;5134541;27;45515;-61
2022/06/04 01:58:25;;;;;;;;;30.33;29.00;;;;;20.73;63.14;100618.31;5134776;27;45500;-62
2022/06/04 02:01:04;;;;;;;;;25.67;24.67;;;;;20.70;63.36;100602.50;5134777;27;45468;-63
2022/06/04 02:03:42;;;;;;;;;28.00;26.33;;;;;20.70;63.62;100610.53;5134540;27;45447;-62
2022/06/04 02:06:26;;;;;;;;;28.00;28.00;;;;;20.69;63.59;100611.50;5135097;27;45506;-62
2022/06/04 02:09:07;;;;;;;;;27.67;26.00;;;;;20.69;63.40;100622.22;5134719;27;45446;-62
2022/06/04 02:11:33;;;;;;;;;29.33;26.33;;;;;20.67;63.53;100616.13;5134629;27;45495;-62
2022/06/04 02:14:05;;;;;;;;;27.33;25.33;;;;;20.65;63.59;100620.72;5134590;27;45653;-63
2022/06/04 02:16:56;;;;;;;;;23.33;22.33;;;;;20.63;63.48;100626.22;5134375;27;46289;-64
2022/06/04 02:19:22;;;;;;;;;25.33;24.67;;;;;20.60;63.86;100626.41;5134042;27;45499;-61
2022/06/04 02:21:47;;;;;;;;;26.00;26.00;;;;;20.61;63.65;100627.28;5135131;27;45649;-63
2022/06/04 02:24:13;;;;;;;;;24.00;24.00;;;;;20.61;63.84;100625.47;5134381;27;45561;-62
2022/06/04 02:26:41;;;;;;;;;24.33;23.33;;;;;20.58;63.97;100623.03;5134277;27;45444;-62
2022/06/04 02:29:07;;;;;;;;;27.00;24.33;;;;;20.43;64.13;100625.00;5133623;27;45603;-61
2022/06/04 02:32:17;;;;;;;;;25.00;24.67;;;;;20.42;64.36;100635.84;5134818;27;45522;-62
2022/06/04 02:34:51;;;;;;;;;25.67;24.67;;;;;20.49;64.00;100639.72;5118508;27;45638;-62
2022/06/04 02:37:40;;;;;;;;;24.67;24.67;;;;;20.51;64.25;100622.59;5134624;27;46356;-61
2022/06/04 02:40:11;;;;;;;;;27.67;27.67;;;;;20.54;63.67;100613.53;5134290;27;45554;-61
2022/06/04 02:43:01;;;;;;;;;28.00;25.00;;;;;20.56;63.85;100614.28;5134477;27;45504;-62
2022/06/04 02:45:45;;;;;;;;;23.33;23.33;;;;;20.58;63.76;100603.44;5134782;27;45468;-63
2022/06/04 02:48:42;;;;;;;;;20.67;20.67;;;;;20.59;63.60;100615.88;5133801;27;46211;-62
2022/06/04 02:51:23;;;;;;;;;26.00;25.33;;;;;20.56;63.50;100611.59;5131316;27;45573;-61
2022/06/04 02:53:49;;;;;;;;;25.33;25.33;;;;;20.56;63.49;100621.44;5134377;27;45557;-62
2022/06/04 02:56:24;;;;;;;;;23.33;23.33;;;;;20.53;63.39;100609.13;5134059;27;45524;-63
2022/06/04 02:58:54;;;;;;;;;29.33;27.67;;;;;20.55;63.41;100603.69;5136651;27;46434;-63
2022/06/04 03:01:21;;;;;;;;;27.00;25.67;;;;;20.52;63.45;100597.59;5137885;27;45534;-63
2022/06/04 03:03:47;;;;;;;;;24.67;24.67;;;;;20.55;63.43;100601.03;5137824;27;45954;-62
2022/06/04 03:06:32;;;;;;;;;25.33;25.33;;;;;20.57;63.48;100601.75;5138027;27;45487;-62
2022/06/04 03:09:00;;;;;;;;;25.33;25.00;;;;;20.58;63.62;100600.78;5137294;27;46209;-63
2022/06/04 03:11:26;;;;;;;;;27.67;27.33;;;;;20.59;63.75;100602.50;5135314;27;45422;-61
2022/06/04 03:13:51;;;;;;;;;21.67;20.33;;;;;20.56;63.67;100594.72;5137210;27;45503;-63
2022/06/04 03:16:17;;;;;;;;;27.33;26.33;;;;;20.54;63.39;100594.84;5137459;27;45521;-61
2022/06/04 03:18:42;;;;;;;;;25.33;25.33;;;;;20.57;63.53;100593.75;5137254;27;45951;-63
2022/06/04 03:21:09;;;;;;;;;27.67;27.67;;;;;20.58;63.67;100582.94;5137835;27;45436;-61
2022/06/04 03:23:34;;;;;;;;;22.67;22.67;;;;;20.53;63.69;100569.06;5135940;27;45529;-63
2022/06/04 03:26:00;;;;;;;;;26.67;26.00;;;;;20.58;63.42;100568.72;5137348;27;45542;-63
2022/06/04 03:28:25;;;;;;;;;28.00;27.67;;;;;20.57;62.96;100572.38;5135968;27;45476;-63
2022/06/04 03:30:51;;;;;;;;;27.67;25.00;;;;;20.53;63.10;100566.38;5136814;27;45476;-62
2022/06/04 03:33:16;;;;;;;;;27.00;25.67;;;;;20.48;63.76;100571.25;5137106;27;45386;-62
2022/06/04 03:35:43;;;;;;;;;23.00;23.00;;;;;20.45;63.78;100576.81;5137466;27;45463;-62
2022/06/04 03:38:09;;;;;;;;;26.33;24.00;;;;;20.42;63.79;100582.41;5135627;27;46468;-63
2022/06/04 03:40:34;;;;;;;;;24.00;24.00;;;;;20.38;64.39;100589.78;5136927;27;45449;-61
2022/06/04 03:43:00;;;;;;;;;25.67;24.67;;;;;20.34;64.46;100582.09;5137106;27;45586;-62
2022/06/04 03:45:26;;;;;;;;;21.67;21.67;;;;;20.33;64.40;100575.06;5137156;27;45545;-63
2022/06/04 03:47:55;;;;;;;;;24.00;23.00;;;;;20.28;64.36;100556.72;5136819;27;46071;-61
2022/06/04 03:50:21;;;;;;;;;24.00;22.67;;;;;20.26;65.09;100556.84;5136700;27;45511;-63
2022/06/04 03:52:48;;;;;;;;;23.00;23.00;;;;;20.25;65.02;100573.00;5137084;27;45530;-63
2022/06/04 03:55:15;;;;;;;;;25.00;23.00;;;;;20.23;64.99;100582.94;5137112;27;45639;-62
2022/06/04 03:57:48;;;;;;;;;22.00;20.00;;;;;20.21;64.44;100584.88;5136473;27;46025;-61
2022/06/04 04:00:30;;;;;;;;;26.33;24.33;;;;;20.22;65.08;100584.75;5136725;27;45627;-63
2022/06/04 04:03:02;;;;;;;;;26.33;23.00;;;;;20.23;64.40;100596.28;5136451;27;45469;-63
2022/06/04 04:05:33;;;;;;;;;18.00;18.00;;;;;20.22;65.00;100611.47;5136997;27;45465;-63
2022/06/04 04:08:00;;;;;;;;;23.00;19.33;;;;;20.23;64.66;100602.50;5136288;27;45580;-62
2022/06/04 04:10:28;;;;;;;;;19.33;19.33;;;;;20.23;64.58;100617.66;5135984;27;45455;-62
2022/06/04 04:12:53;;;;;;;;;21.67;21.00;;;;;20.24;64.44;100620.22;5136187;27;45481;-62
2022/06/04 04:15:19;;;;;;;;;22.33;21.33;;;;;20.22;64.23;100632.81;5136497;27;45595;-62
2022/06/04 04:17:46;;;;;;;;;23.00;21.67;;;;;20.22;64.78;100630.16;5136434;27;45437;-61
2022/06/04 04:20:18;;;;;;;;;22.33;22.33;;;;;20.20;64.45;100636.56;5136610;27;45572;-64
2022/06/04 04:22:44;;;;;;;;;23.00;22.67;;;;;20.20;65.09;100649.94;5136853;27;45465;-64
2022/06/04 04:25:11;;;;;;;;;22.33;22.33;;;;;20.19;65.02;100670.44;5136255;27;45466;-61
2022/06/04 04:27:36;;;;;;;;;25.00;24.00;;;;;20.20;65.10;100680.19;5135974;27;45452;-64
2022/06/04 04:30:04;;;;;;;;;22.00;22.00;;;;;20.22;64.86;100686.25;5136057;27;45506;-62
2022/06/04 04:32:31;;;;;;;;;20.00;20.00;;;;;20.25;65.02;100685.16;5136296;27;45494;-64
2022/06/04 04:34:57;;;;;;;;;22.00;21.33;;;;;20.27;64.42;100685.91;5136071;27;45459;-64
2022/06/04 04:37:22;;;;;;;;;19.33;19.33;;;;;20.26;64.42;100693.06;5135651;27;45585;-62
2022/06/04 04:39:48;;;;;;;;;18.67;18.67;;;;;20.30;64.42;100699.88;5136021;27;45603;-64
2022/06/04 04:42:13;;;;;;;;;19.67;18.00;;;;;20.31;64.18;100700.75;5135968;27;45434;-64
2022/06/04 04:44:38;;;;;;;;;18.67;17.33;;;;;20.30;64.50;100707.88;5136039;27;45460;-63
2022/06/04 04:47:04;;;;;;;;;19.67;19.67;;;;;20.29;64.22;100711.53;5136065;27;46129;-64
2022/06/04 04:49:29;;;;;;;;;23.67;23.00;;;;;20.30;64.36;100707.03;5136043;27;45499;-62
2022/06/04 04:51:54;;;;;;;;;19.67;19.67;;;;;20.30;64.15;100702.53;5136028;27;45511;-62
2022/06/04 04:54:20;;;;;;;;;23.00;22.67;;;;;20.31;64.46;100703.41;5135833;27;45455;-63
2022/06/04 04:56:46;;;;;;;;;19.33;18.67;;;;;20.32;64.67;100705.13;5135631;27;45444;-64
2022/06/04 04:59:12;;;;;;;;;18.33;18.33;;;;;20.34;64.16;100710.31;5134360;27;45512;-63
2022/06/04 05:01:37;;;;;;;;;19.33;18.00;;;;;20.33;64.58;100693.44;5136271;27;45633;-61
2022/06/04 05:04:04;;;;;;;;;20.67;20.67;;;;;20.34;63.97;100694.31;5135842;27;45421;-62
2022/06/04 05:06:30;;;;;;;;;23.00;20.00;;;;;20.33;64.81;100689.94;5135915;27;46345;-63
2022/06/04 05:08:56;;;;;;;;;21.67;19.67;;;;;20.30;64.52;100705.22;5135671;27;45589;-64
2022/06/04 05:11:27;;;;;;;;;20.00;19.33;;;;;20.30;64.01;100666.97;5135914;27;45482;-61
2022/06/04 05:13:53;;;;;;;;;21.33;21.33;;;;;20.31;63.92;100668.69;5134371;27;45504;-63
2022/06/04 05:16:20;;;;;;;;;21.00;21.00;;;;;20.30;64.35;100672.31;5133878;27;45529;-61
2022/06/04 05:18:47;;;;;;;;;19.33;19.33;;;;;20.30;64.41;100675.84;5135230;27;45546;-62
2022/06/04 05:21:19;;;;;;;;;23.33;22.33;;;;;20.31;64.54;100687.41;5134533;27;45441;-62
2022/06/04 05:23:44;;;;;;;;;18.67;18.67;;;;;20.31;64.68;100687.41;5135336;27;45483;-64
2022/06/04 05:26:10;;;;;;;;;22.67;22.33;;;;;20.30;64.43;100673.16;5135116;27;45534;-61
2022/06/04 05:28:35;;;;;;;;;24.00;21.67;;;;;20.26;64.98;100666.38;5134932;27;45546;-61
2022/06/04 05:31:02;;;;;;;;;21.67;19.67;;;;;20.26;64.76;100655.69;5135120;27;45538;-63
2022/06/04 05:33:28;;;;;;;;;19.00;19.00;;;;;20.32;64.63;100659.72;5135379;27;45436;-64
2022/06/04 05:35:53;;;;;;;;;19.67;19.67;;;;;20.35;64.84;100637.25;5135330;27;46158;-63
2022/06/04 05:38:19;;;;;;;;;18.67;18.67;;;;;20.34;64.40;100631.06;5135203;27;45484;-61
2022/06/04 05:40:44;;;;;;;;;21.00;19.67;;;;;20.35;64.51;100627.41;5135237;27;45403;-63
2022/06/04 05:43:10;;;;;;;;;21.33;18.67;;;;;20.35;64.73;100643.44;5134717;27;47164;-63
2022/06/04 05:45:35;;;;;;;;;17.67;17.67;;;;;20.34;64.47;100646.22;5134847;27;47243;-61
2022/06/04 05:48:00;;;;;;;;;17.00;17.00;;;;;20.33;64.50;100656.06;5135035;27;45360;-61
2022/06/04 05:50:26;;;;;;;;;17.33;17.33;;;;;20.35;64.58;100656.81;5135486;27;45521;-62
2022/06/04 05:52:51;;;;;;;;;19.33;18.67;;;;;20.38;64.46;100653.91;5135483;27;45355;-61
2022/06/04 05:55:16;;;;;;;;;19.67;19.67;;;;;20.41;64.31;100659.00;5135086;27;45470;-63
2022/06/04 05:57:42;;;;;;;;;21.67;19.67;;;;;20.43;64.84;100674.94;5135078;27;45497;-64
2022/06/04 06:00:08;;;;;;;;;24.00;22.67;;;;;20.42;64.45;100684.78;5135201;27;45519;-64
2022/06/04 06:02:34;;;;;;;;;18.67;18.67;;;;;20.40;64.71;100694.72;5135182;27;45519;-64
2022/06/04 06:05:00;;;;;;;;;20.33;20.33;;;;;20.39;64.47;100694.81;5135011;27;45499;-63
2022/06/04 06:07:25;;;;;;;;;23.67;21.33;;;;;20.39;64.39;100716.19;5135284;27;45465;-62
2022/06/04 06:09:50;;;;;;;;;21.67;18.67;;;;;20.41;64.21;100751.66;5135040;27;45553;-62
2022/06/04 06:12:16;;;;;;;;;24.00;22.00;;;;;20.39;64.65;100754.47;5134601;27;45450;-63
2022/06/04 06:14:41;;;;;;;;;19.67;19.67;;;;;20.30;65.27;100713.22;5134527;27;46479;-64
2022/06/04 06:17:06;;;;;;;;;19.67;18.67;;;;;20.30;64.96;100717.72;5134727;27;45379;-62
2022/06/04 06:19:32;;;;;;;;;18.67;18.67;;;;;20.33;65.13;100738.88;5134758;27;45471;-63
2022/06/04 06:21:58;;;;;;;;;24.00;21.33;;;;;20.34;65.06;100745.06;5135055;27;45613;-64
2022/06/04 06:24:23;;;;;;;;;19.33;18.33;;;;;20.35;64.88;100779.69;5134710;27;45424;-62
2022/06/04 06:26:53;;;;;;;;;19.00;19.00;;;;;20.40;64.80;100796.22;5134765;27;45508;-62
2022/06/04 06:29:18;;;;;;;;;19.67;19.67;;;;;20.40;64.66;100790.03;5134892;27;45457;-63
2022/06/04 06:31:45;;;;;;;;;22.33;20.00;;;;;20.41;64.79;100779.22;5136005;27;46099;-63
2022/06/04 06:34:11;;;;;;;;;22.00;18.33;;;;;20.42;65.18;100766.75;5138148;27;46208;-63
2022/06/04 06:36:36;;;;;;;;;21.67;20.00;;;;;20.46;65.54;100770.88;5137529;27;45539;-62
2022/06/04 06:39:02;;;;;;;;;23.00;20.67;;;;;20.47;65.08;100760.09;5138228;27;45543;-64
2022/06/04 06:41:28;;;;;;;;;19.00;19.00;;;;;20.50;64.78;100775.88;5138498;27;45522;-65
2022/06/04 06:43:54;;;;;;;;;22.67;18.67;;;;;20.52;64.67;100787.31;5137726;27;45967;-64
2022/06/04 06:46:51;;;;;;;;;22.67;22.67;;;;;20.55;64.92;100788.06;5138263;27;45429;-63
2022/06/04 06:49:20;;;;;;;;;33.67;31.67;;;;;20.56;64.66;100784.44;5137883;27;45503;-62
2022/06/04 06:51:49;;;;;;;;;28.00;26.00;;;;;20.55;64.82;100775.56;5138014;27;45391;-63
2022/06/04 06:54:16;;;;;;;;;24.33;22.67;;;;;20.54;64.62;100768.50;5137367;27;46128;-63
2022/06/04 06:56:44;;;;;;;;;24.33;21.00;;;;;20.56;64.61;100768.41;5137417;27;45476;-61
2022/06/04 06:59:10;;;;;;;;;33.67;30.67;;;;;20.57;64.75;100767.44;5137624;27;45492;-63
2022/06/04 07:01:36;;;;;;;;;24.67;24.67;;;;;20.59;64.70;100754.81;5137506;27;45491;-62
2022/06/04 07:04:02;;;;;;;;;48.00;40.00;;;;;20.60;64.81;100740.47;5137320;27;45510;-64
2022/06/04 07:06:37;;;;;;;;;46.67;40.00;;;;;20.62;64.43;100744.75;5137485;27;45474;-62
2022/06/04 07:09:06;;;;;;;;;43.67;37.67;;;;;20.61;64.53;100737.72;5135930;27;45491;-63
2022/06/04 07:11:31;;;;;;;;;34.00;32.67;;;;;20.61;64.53;100735.03;5137032;27;45367;-63
2022/06/04 07:13:57;;;;;;;;;31.00;29.33;;;;;20.62;64.86;100714.50;5136856;27;45991;-61
2022/06/04 07:16:23;;;;;;;;;26.00;24.67;;;;;20.62;64.63;100719.84;5137032;27;45505;-61
2022/06/04 07:18:48;;;;;;;;;25.33;24.67;;;;;20.61;64.83;100728.84;5135809;27;45493;-63
2022/06/04 07:21:14;;;;;;;;;28.67;25.67;;;;;20.61;64.83;100728.84;5137817;27;45460;-62
2022/06/04 07:23:40;;;;;;;;;24.67;24.00;;;;;20.62;64.87;100734.06;5136931;27;46066;-61
2022/06/04 07:26:06;;;;;;;;;19.67;19.67;;;;;20.63;64.85;100750.94;5137363;27;45520;-61
2022/06/04 07:28:32;;;;;;;;;19.67;19.67;;;;;20.64;65.05;100750.00;5137762;27;45554;-59
2022/06/04 07:30:58;;;;;;;;;25.00;23.67;;;;;20.65;65.39;100757.03;5135226;27;45586;-60
2022/06/04 07:33:25;;;;;;;;;22.67;22.33;;;;;20.66;65.30;100756.91;5136765;27;46322;-60
2022/06/04 07:35:51;;;;;;;;;24.33;24.33;;;;;20.68;65.15;100771.00;5137362;27;45460;-61
2022/06/04 07:38:17;;;;;;;;;28.67;27.67;;;;;20.68;65.20;100765.66;5137248;27;45592;-59
2022/06/04 07:40:44;;;;;;;;;27.00;23.00;;;;;20.69;65.54;100770.06;5137059;27;45552;-61
2022/06/04 07:43:11;;;;;;;;;25.67;25.00;;;;;20.71;65.58;100786.84;5136079;27;45832;-61
2022/06/04 07:45:37;;;;;;;;;24.00;24.00;;;;;20.74;65.51;100789.28;5137466;27;45800;-61
2022/06/04 07:48:03;;;;;;;;;27.67;26.33;;;;;20.76;66.07;100777.59;5136843;27;45408;-61
2022/06/04 07:50:29;;;;;;;;;27.33;26.67;;;;;20.72;66.07;100763.63;5136846;27;45676;-59
2022/06/04 07:52:57;;;;;;;;;27.33;26.33;;;;;20.73;65.65;100771.50;5136997;27;46339;-59
2022/06/04 07:55:23;;;;;;;;;27.33;27.00;;;;;20.77;65.69;100772.16;5136695;27;45591;-60
2022/06/04 07:57:48;;;;;;;;;24.00;24.00;;;;;20.80;65.26;100769.25;5136651;27;45504;-61
2022/06/04 08:00:15;;;;;;;;;25.33;25.33;;;;;20.84;65.29;100772.53;5136464;27;45505;-60
2022/06/04 08:02:42;;;;;;;;;28.00;25.33;;;;;20.85;65.61;100769.75;5136226;27;46130;-60
2022/06/04 08:05:08;;;;;;;;;28.67;27.33;;;;;20.90;65.12;100758.69;5136758;27;45516;-61
2022/06/04 08:07:34;;;;;;;;;28.67;28.67;;;;;20.92;65.49;100756.75;5136773;27;45537;-60
2022/06/04 08:10:00;;;;;;;;;29.67;28.00;;;;;20.92;66.33;100746.91;5135422;27;45584;-60
2022/06/04 08:12:29;;;;;;;;;26.00;25.00;;;;;21.00;65.61;100748.16;5136103;27;46349;-60
2022/06/04 08:14:55;;;;;;;;;24.00;24.00;;;;;21.08;65.49;100751.09;5137086;27;45520;-62
2022/06/04 08:17:23;;;;;;;;;31.33;30.00;;;;;21.12;65.84;100756.09;5137124;27;45567;-60
2022/06/04 08:19:48;;;;;;;;;26.67;25.00;;;;;21.13;65.43;100740.88;5137141;27;45612;-61
2022/06/04 08:22:14;;;;;;;;;25.67;23.67;;;;;21.20;64.98;100750.16;5136771;27;46056;-60
2022/06/04 08:24:40;;;;;;;;;28.33;27.33;;;;;21.25;64.85;100765.81;5136366;27;45509;-64
2022/06/04 08:27:06;;;;;;;;;25.33;25.00;;;;;21.28;64.69;100770.94;5135499;27;45437;-64
2022/06/04 08:29:33;;;;;;;;;28.33;26.00;;;;;21.22;64.60;100761.56;5136691;27;45657;-62
2022/06/04 08:32:00;;;;;;;;;27.67;27.00;;;;;21.21;64.81;100759.03;5135077;27;45536;-65
2022/06/04 08:34:26;;;;;;;;;26.67;26.67;;;;;21.22;64.80;100766.91;5134080;27;45519;-62
2022/06/04 08:36:51;;;;;;;;;34.33;32.00;;;;;21.21;64.21;100770.56;5136122;27;45480;-64
2022/06/04 08:39:17;;;;;;;;;26.00;26.00;;;;;21.19;64.22;100762.66;5135991;27;45523;-62
2022/06/04 08:41:49;;;;;;;;;26.67;26.67;;;;;21.22;64.57;100756.22;5136260;27;46017;-67
2022/06/04 08:44:14;;;;;;;;;30.67;30.67;;;;;21.24;63.80;100764.13;5136824;27;45515;-64
2022/06/04 08:46:51;;;;;;;;;29.33;28.67;;;;;21.25;64.01;100764.03;5135565;27;45420;-63
2022/06/04 08:49:39;;;;;;;;;31.33;31.33;;;;;21.28;63.57;100761.09;5137300;27;45509;-59
2022/06/04 08:52:16;;;;;;;;;28.67;26.33;;;;;21.31;63.10;100776.06;5136468;27;45719;-59
2022/06/04 08:57:41;;;;;;;;;30.33;30.33;;;;;21.34;63.19;100781.19;5137068;27;45515;-59
2022/06/04 09:00:12;;;;;;;;;30.00;30.00;;;;;21.37;62.94;100781.81;5136889;27;45444;-57
2022/06/04 09:02:55;;;;;;;;;30.33;30.33;;;;;21.39;62.90;100790.59;5136279;27;46096;-56
2022/06/04 09:05:31;;;;;;;;;27.33;27.33;;;;;21.36;62.63;100789.94;5136530;27;45462;-57
2022/06/04 09:08:01;;;;;;;;;25.33;25.33;;;;;21.40;62.68;100778.91;5136867;27;45512;-57
2022/06/04 09:10:43;;;;;;;;;27.00;27.00;;;;;21.47;62.35;100775.75;5136553;27;45563;-58
2022/06/04 09:13:31;;;;;;;;;31.33;31.00;;;;;21.50;62.68;100780.88;5136342;27;46417;-58
2022/06/04 09:16:04;;;;;;;;;28.00;25.33;;;;;21.56;62.57;100780.38;5136432;27;45450;-58
2022/06/04 09:18:36;;;;;;;;;36.33;32.67;;;;;21.61;62.80;100778.19;5136367;27;45548;-58
2022/06/04 09:21:04;;;;;;;;;30.67;27.00;;;;;21.66;62.00;100786.72;5136400;27;45560;-57
2022/06/04 09:23:35;;;;;;;;;34.33;31.67;;;;;21.70;62.07;100788.16;5135798;27;46226;-59
2022/06/04 09:26:13;;;;;;;;;25.33;25.00;;;;;21.74;61.38;100797.66;5135621;27;45492;-58
2022/06/04 09:29:02;;;;;;;;;26.00;24.33;;;;;21.78;61.27;100791.09;5136466;27;45361;-58
2022/06/04 09:32:05;;;;;;;;;24.00;23.00;;;;;21.82;61.00;100792.56;5136207;27;45474;-59
2022/06/04 09:34:36;;;;;;;;;27.00;26.33;;;;;21.87;60.49;100794.00;5134843;27;46050;-58
2022/06/04 09:37:05;;;;;;;;;25.33;24.33;;;;;21.88;60.15;100782.34;5135756;27;45424;-58
2022/06/04 09:39:33;;;;;;;;;22.67;22.00;;;;;21.91;60.06;100782.09;5136465;27;45543;-54
2022/06/04 09:42:02;;;;;;;;;24.67;24.67;;;;;21.94;60.22;100789.88;5136152;27;45441;-58
2022/06/04 09:44:30;;;;;;;;;23.00;23.00;;;;;21.96;60.23;100780.72;5135871;27;47505;-57
2022/06/04 09:47:20;;;;;;;;;29.00;25.67;;;;;22.02;60.07;100785.59;5135876;27;45428;-56
2022/06/04 09:49:57;;;;;;;;;24.00;22.67;;;;;22.07;60.13;100774.50;5136133;27;45452;-57
2022/06/04 09:52:42;;;;;;;;;23.00;21.67;;;;;22.11;60.00;100781.34;5136277;27;45500;-57
2022/06/04 09:55:16;;;;;;;;;25.67;24.33;;;;;22.12;59.78;100780.34;5135786;27;45506;-59
2022/06/04 09:57:41;;;;;;;;;20.33;19.33;;;;;22.14;59.92;100780.22;5135812;27;45523;-59
2022/06/04 10:00:20;;;;;;;;;22.00;19.67;;;;;22.19;59.86;100789.63;5135820;27;45504;-57
2022/06/04 10:02:57;;;;;;;;;27.33;25.00;;;;;22.24;59.33;100783.88;5135665;27;45443;-56
2022/06/04 10:05:27;;;;;;;;;18.33;18.33;;;;;22.30;58.63;100794.13;5135600;27;46449;-58
2022/06/04 10:07:53;;;;;;;;;22.33;22.33;;;;;22.34;59.06;100787.53;5138737;27;45483;-59
2022/06/04 10:10:38;;;;;;;;;23.00;22.33;;;;;22.40;58.95;100784.31;5139419;27;45439;-60
2022/06/04 10:16:17;;;;;;;;;21.67;20.00;;;;;22.53;58.14;100778.81;5139160;27;45427;-57
2022/06/04 10:19:05;;;;;;;;;19.00;19.00;;;;;22.59;58.00;100785.50;5139470;27;45436;-59
2022/06/04 10:21:35;;;;;;;;;22.67;21.00;;;;;22.62;57.60;100788.78;5139714;27;45480;-60
2022/06/04 10:24:04;;;;;;;;;35.67;31.67;;;;;22.70;58.11;100782.75;5139483;27;45646;-60
2022/06/04 10:26:48;;;;;;;;;20.33;20.33;;;;;22.75;57.51;100772.50;5139029;27;46681;-57
2022/06/04 10:29:51;;;;;;;;;21.00;17.67;;;;;22.82;57.56;100765.66;5138093;27;45436;-56
2022/06/04 10:32:47;;;;;;;;;17.67;17.67;;;;;22.88;56.73;100767.81;5139614;27;45472;-58
2022/06/04 10:35:22;;;;;;;;;17.67;17.67;;;;;22.94;56.92;100769.13;5139216;27;45507;-58
2022/06/04 10:38:10;;;;;;;;;22.67;21.67;;;;;22.99;56.83;100771.47;5138642;27;46160;-55
2022/06/04 10:41:06;;;;;;;;;16.00;16.00;;;;;23.02;57.07;100777.41;5138675;27;45511;-57
2022/06/04 10:43:59;;;;;;;;;14.33;14.33;;;;;23.04;56.34;100772.75;5138577;27;45530;-56
2022/06/04 10:46:36;;;;;;;;;16.00;15.33;;;;;23.07;56.70;100771.66;5138542;27;45601;-57
2022/06/04 10:49:16;;;;;;;;;17.00;16.00;;;;;23.09;56.84;100765.19;5138762;27;46393;-58
2022/06/04 10:51:52;;;;;;;;;18.00;18.00;;;;;23.13;56.41;100766.63;5138872;27;45508;-58
2022/06/04 10:54:43;;;;;;;;;16.33;16.33;;;;;23.14;56.32;100764.78;5138786;27;45562;-58
2022/06/04 10:57:19;;;;;;;;;16.50;16.50;;;;;23.17;56.16;100763.69;5138665;27;45589;-61
2022/06/04 10:59:56;;;;;;;;;13.67;13.33;;;;;23.21;56.06;100754.38;5138419;27;46190;-60
2022/06/04 11:02:33;;;;;;;;;17.00;16.33;;;;;23.27;56.22;100764.59;5138559;27;45516;-60
2022/06/04 11:05:12;;;;;;;;;14.00;14.00;;;;;23.31;56.11;100758.81;5138548;27;45546;-60
2022/06/04 11:07:52;;;;;;;;;21.33;20.00;;;;;23.31;55.50;100763.34;5138549;27;45520;-60
2022/06/04 11:10:23;;;;;;;;;17.33;17.33;;;;;23.40;55.46;100754.50;5139183;27;45439;-60
2022/06/04 11:13:13;;;;;;;;;15.67;15.67;;;;;23.44;55.45;100753.25;5138955;27;45382;-60
2022/06/04 11:15:53;;;;;;;;;23.67;21.33;;;;;23.48;55.06;100759.19;5139969;27;45446;-60
2022/06/04 11:18:32;;;;;;;;;27.67;24.33;;;;;23.52;55.10;100750.72;5138471;27;45492;-61
2022/06/04 11:21:04;;;;;;;;;51.33;43.33;;;;;23.52;55.21;100753.41;5139316;27;45464;-60
2022/06/04 11:23:51;;;;;;;;;63.67;51.00;;;;;23.50;54.81;100747.31;5137908;27;45475;-60
2022/06/04 11:27:10;;;;;;;;;19.00;18.67;;;;;23.50;54.85;100744.63;5138152;27;45452;-60
2022/06/04 11:29:36;;;;;;;;;19.67;19.67;;;;;23.54;54.66;100740.72;5114598;27;45500;-60
2022/06/04 11:32:19;;;;;;;;;19.67;19.67;;;;;23.63;54.54;100739.06;5135911;27;45404;-60
2022/06/04 11:35:08;;;;;;;;;15.67;15.67;;;;;23.71;53.80;100736.56;5137938;27;45480;-61
2022/06/04 11:37:52;;;;;;;;;15.00;14.00;;;;;23.82;53.50;100732.94;5137933;27;45579;-60
2022/06/04 11:40:40;;;;;;;;;29.00;26.33;;;;;23.91;53.68;100733.94;5138011;27;45438;-61
2022/06/04 11:43:35;;;;;;;;;15.50;15.50;;;;;23.93;53.80;100732.81;5126768;27;45566;-60